createdAt,value
2023-05-07T00:01:58.248Z,7.72
2023-05-07T00:05:25.859Z,7.62
2023-05-07T00:08:52.735Z,7.54
2023-05-07T00:12:19.642Z,7.42
2023-05-07T00:15:47.150Z,7.29
2023-05-07T00:19:15.458Z,7.20
2023-05-07T00:22:42.565Z,7.12
2023-05-07T00:26:09.445Z,7.04
2023-05-07T00:29:36.222Z,6.98
2023-05-07T00:33:03.673Z,6.95
2023-05-07T00:36:31.678Z,6.91
2023-05-07T00:39:59.026Z,6.88
2023-05-07T00:43:26.313Z,6.87
2023-05-07T00:46:53.588Z,6.86
2023-05-07T00:50:26.958Z,6.82
2023-05-07T00:53:54.222Z,6.76
2023-05-07T00:57:21.646Z,6.68
2023-05-07T01:00:48.730Z,6.60
2023-05-07T01:04:16.528Z,6.50
2023-05-07T01:07:44.968Z,6.39
2023-05-07T01:11:13.355Z,6.28
2023-05-07T01:14:40.631Z,6.17
2023-05-07T01:18:08.332Z,6.07
2023-05-07T01:21:40.215Z,5.97
2023-05-07T01:25:10.310Z,5.85
2023-05-07T01:28:40.421Z,5.77
2023-05-07T01:32:09.688Z,5.72
2023-05-07T01:35:43.166Z,5.68
2023-05-07T01:39:11.979Z,5.65
2023-05-07T01:42:38.780Z,5.60
2023-05-07T01:46:06.494Z,5.58
2023-05-07T01:49:33.200Z,5.58
2023-05-07T01:53:00.970Z,5.57
2023-05-07T01:56:29.371Z,5.51
2023-05-07T01:59:56.606Z,5.47
2023-05-07T02:03:24.263Z,5.48
2023-05-07T02:06:56.984Z,5.45
2023-05-07T02:10:24.786Z,5.42
2023-05-07T02:13:51.668Z,5.35
2023-05-07T02:17:18.430Z,5.27
2023-05-07T02:20:45.887Z,5.18
2023-05-07T02:24:12.438Z,5.10
2023-05-07T02:27:39.246Z,5.00
2023-05-07T02:31:07.462Z,4.92
2023-05-07T02:34:34.447Z,4.84
2023-05-07T02:38:04.067Z,4.76
2023-05-07T02:41:31.706Z,4.68
2023-05-07T02:44:59.162Z,4.64
2023-05-07T02:48:26.886Z,4.61
2023-05-07T02:51:53.853Z,4.60
2023-05-07T02:55:22.901Z,4.58
2023-05-07T02:58:50.201Z,4.57
2023-05-07T03:02:18.213Z,4.59
2023-05-07T03:05:45.487Z,4.59
2023-05-07T03:09:12.476Z,4.58
2023-05-07T03:12:39.091Z,4.56
2023-05-07T03:16:06.823Z,4.56
2023-05-07T03:19:34.115Z,4.52
2023-05-07T03:23:01.973Z,4.46
2023-05-07T03:26:28.875Z,4.40
2023-05-07T03:29:56.048Z,4.31
2023-05-07T03:33:23.095Z,4.30
2023-05-07T03:36:50.049Z,4.24
2023-05-07T03:40:18.933Z,4.18
2023-05-07T03:43:48.704Z,4.13
2023-05-07T03:47:16.418Z,4.09
2023-05-07T03:50:43.901Z,4.07
2023-05-07T03:54:10.797Z,4.08
2023-05-07T03:57:38.348Z,4.10
2023-05-07T04:01:05.741Z,4.15
2023-05-07T04:04:34.140Z,4.23
2023-05-07T04:08:02.140Z,4.34
2023-05-07T04:11:33.599Z,4.45
2023-05-07T04:15:00.253Z,4.53
2023-05-07T04:18:26.890Z,4.64
2023-05-07T04:21:54.108Z,4.75
2023-05-07T04:25:20.798Z,4.84
2023-05-07T04:28:47.967Z,4.95
2023-05-07T04:32:15.910Z,5.04
2023-05-07T04:35:42.918Z,5.14
2023-05-07T04:39:10.120Z,5.22
2023-05-07T04:42:37.798Z,5.30
2023-05-07T04:46:05.005Z,5.36
2023-05-07T04:49:32.083Z,5.43
2023-05-07T04:52:59.182Z,5.49
2023-05-07T04:56:26.065Z,5.56
2023-05-07T04:59:57.383Z,5.62
2023-05-07T05:03:24.604Z,5.70
2023-05-07T05:06:51.296Z,5.78
2023-05-07T05:10:18.759Z,5.88
2023-05-07T05:13:45.922Z,5.99
2023-05-07T05:17:16.866Z,6.11
2023-05-07T05:20:43.912Z,6.24
2023-05-07T05:24:12.896Z,6.38
2023-05-07T05:27:39.884Z,6.54
2023-05-07T05:31:07.088Z,6.69
2023-05-07T05:34:37.067Z,6.84
2023-05-07T05:38:05.539Z,6.98
2023-05-07T05:41:34.063Z,7.12
2023-05-07T05:45:01.734Z,7.24
2023-05-07T05:48:29.173Z,7.32
2023-05-07T05:51:57.141Z,7.38
2023-05-07T05:55:25.970Z,7.43
2023-05-07T05:58:53.405Z,7.48
2023-05-07T06:02:20.409Z,7.53
2023-05-07T06:05:47.905Z,7.57
2023-05-07T06:09:16.138Z,7.61
2023-05-07T06:12:45.764Z,7.65
2023-05-07T06:16:13.406Z,7.70
2023-05-07T06:19:40.869Z,7.76
2023-05-07T06:23:07.718Z,7.85
2023-05-07T06:26:35.101Z,7.93
2023-05-07T06:30:05.753Z,8.02
2023-05-07T06:33:33.706Z,8.14
2023-05-07T06:37:01.821Z,8.27
2023-05-07T06:40:42.691Z,8.39
2023-05-07T06:44:10.200Z,8.49
2023-05-07T06:47:42.336Z,8.61
2023-05-07T06:51:10.881Z,8.72
2023-05-07T06:54:38.597Z,8.81
2023-05-07T06:58:17.623Z,8.89
2023-05-07T07:01:45.597Z,8.95
2023-05-07T07:05:13.871Z,9.00
2023-05-07T07:08:50.286Z,9.04
2023-05-07T07:12:19.721Z,9.07
2023-05-07T07:15:47.568Z,9.10
2023-05-07T07:19:16.448Z,9.18
2023-05-07T07:22:43.800Z,9.25
2023-05-07T07:26:10.876Z,9.34
2023-05-07T07:29:37.702Z,9.45
2023-05-07T07:33:05.695Z,9.54
2023-05-07T07:36:45.731Z,9.63
2023-05-07T07:40:17.480Z,9.69
2023-05-07T07:43:45.469Z,9.75
2023-05-07T07:47:12.621Z,9.82
2023-05-07T07:50:45.379Z,9.93
2023-05-07T07:54:16.004Z,10.03
2023-05-07T07:57:44.837Z,10.15
2023-05-07T08:01:13.522Z,10.27
2023-05-07T08:04:49.649Z,10.38
2023-05-07T08:08:18.820Z,10.49
2023-05-07T08:11:47.862Z,10.60
2023-05-07T08:15:16.030Z,10.75
2023-05-07T08:18:43.552Z,10.86
2023-05-07T08:22:10.255Z,10.95
2023-05-07T08:25:38.740Z,11.04
2023-05-07T08:29:06.253Z,11.14
2023-05-07T08:32:36.933Z,11.23
2023-05-07T08:36:07.153Z,11.31
2023-05-07T08:39:35.805Z,11.43
2023-05-07T08:43:04.681Z,11.54
2023-05-07T08:46:35.363Z,11.64
2023-05-07T08:50:03.480Z,11.69
2023-05-07T08:53:30.234Z,11.77
2023-05-07T08:56:58.444Z,11.82
2023-05-07T09:00:26.546Z,11.92
2023-05-07T09:03:58.016Z,12.04
2023-05-07T09:07:27.483Z,12.13
2023-05-07T09:10:54.824Z,12.22
2023-05-07T09:14:27.292Z,12.27
2023-05-07T09:18:03.750Z,12.32
2023-05-07T09:21:32.951Z,12.42
2023-05-07T09:25:00.225Z,12.51
2023-05-07T09:28:29.197Z,12.60
2023-05-07T09:31:55.985Z,12.76
2023-05-07T09:35:25.552Z,12.91
2023-05-07T09:38:57.922Z,13.06
2023-05-07T09:42:28.810Z,13.21
2023-05-07T09:46:01.560Z,13.35
2023-05-07T09:49:32.098Z,13.43
2023-05-07T09:53:06.190Z,13.59
2023-05-07T09:56:34.662Z,13.75
2023-05-07T10:00:05.457Z,13.94
2023-05-07T10:03:40.272Z,14.07
2023-05-07T10:07:08.160Z,14.22
2023-05-07T10:10:37.660Z,14.38
2023-05-07T10:14:07.133Z,14.57
2023-05-07T10:17:37.884Z,14.81
2023-05-07T10:21:10.500Z,15.01
2023-05-07T10:24:39.375Z,15.18
2023-05-07T10:28:11.132Z,15.34
2023-05-07T10:31:57.832Z,15.47
2023-05-07T10:35:29.846Z,15.59
2023-05-07T10:38:59.749Z,15.67
2023-05-07T10:42:30.644Z,15.73
2023-05-07T10:46:20.336Z,15.77
2023-05-07T10:50:26.234Z,15.71
2023-05-07T10:54:24.357Z,15.62
2023-05-07T10:57:57.415Z,15.68
2023-05-07T11:01:55.675Z,15.82
2023-05-07T11:05:37.551Z,15.98
2023-05-07T11:09:16.091Z,16.13
2023-05-07T11:12:59.486Z,16.32
2023-05-07T11:16:38.189Z,16.44
2023-05-07T11:20:49.310Z,16.50
2023-05-07T11:24:25.812Z,16.62
2023-05-07T11:28:06.722Z,16.73
2023-05-07T11:31:42.002Z,16.74
2023-05-07T11:35:11.771Z,16.76
2023-05-07T11:38:41.406Z,16.87
2023-05-07T11:42:27.486Z,17.05
2023-05-07T11:45:55.207Z,17.18
2023-05-07T11:49:28.241Z,17.28
2023-05-07T11:52:57.997Z,17.42
2023-05-07T11:56:25.463Z,17.57
2023-05-07T11:59:55.485Z,17.70
2023-05-07T12:03:23.519Z,17.81
2023-05-07T12:06:52.208Z,17.96
2023-05-07T12:10:21.079Z,18.16
2023-05-07T12:13:49.410Z,18.35
2023-05-07T12:17:19.439Z,18.55
2023-05-07T12:20:47.513Z,18.73
2023-05-07T12:24:14.522Z,18.85
2023-05-07T12:27:43.257Z,18.98
2023-05-07T12:31:10.722Z,19.00
2023-05-07T12:34:38.331Z,18.90
2023-05-07T12:38:10.288Z,19.05
2023-05-07T12:41:54.756Z,19.03
2023-05-07T12:45:23.605Z,19.22
2023-05-07T12:48:51.362Z,19.43
2023-05-07T12:52:24.599Z,19.66
2023-05-07T12:55:55.443Z,19.81
2023-05-07T12:59:24.782Z,19.95
2023-05-07T13:02:52.208Z,20.09
2023-05-07T13:06:19.948Z,20.28
2023-05-07T13:09:49.259Z,20.25
2023-05-07T13:13:19.069Z,20.17
2023-05-07T13:16:46.879Z,20.34
2023-05-07T13:20:18.727Z,20.16
2023-05-07T13:23:52.519Z,19.89
2023-05-07T13:27:23.665Z,19.74
2023-05-07T13:30:53.294Z,19.64
2023-05-07T13:34:23.977Z,19.64
2023-05-07T13:37:53.480Z,20.00
2023-05-07T13:41:22.207Z,20.02
2023-05-07T13:44:52.155Z,20.20
2023-05-07T13:48:20.214Z,20.56
2023-05-07T13:51:50.599Z,20.81
2023-05-07T13:55:20.705Z,20.73
2023-05-07T13:58:59.536Z,20.58
2023-05-07T14:02:30.446Z,20.58
2023-05-07T14:05:59.651Z,20.66
2023-05-07T14:09:28.250Z,20.86
2023-05-07T14:12:56.813Z,20.97
2023-05-07T14:16:24.138Z,21.14
2023-05-07T14:19:51.220Z,21.29
2023-05-07T14:23:21.623Z,21.47
2023-05-07T14:26:49.514Z,21.68
2023-05-07T14:30:24.728Z,21.79
2023-05-07T14:33:55.479Z,21.90
2023-05-07T14:37:22.729Z,21.96
2023-05-07T14:40:51.913Z,21.92
2023-05-07T14:44:19.835Z,21.98
2023-05-07T14:47:48.257Z,21.96
2023-05-07T14:51:16.829Z,22.09
2023-05-07T14:54:44.448Z,22.25
2023-05-07T14:58:13.439Z,22.34
2023-05-07T15:01:46.897Z,22.32
2023-05-07T15:05:13.760Z,22.37
2023-05-07T15:08:41.252Z,22.40
2023-05-07T15:12:17.254Z,22.43
2023-05-07T15:15:44.697Z,22.21
2023-05-07T15:19:12.393Z,22.03
2023-05-07T15:22:41.190Z,21.64
2023-05-07T15:26:10.438Z,21.31
2023-05-07T15:29:39.220Z,21.01
2023-05-07T15:33:07.309Z,20.79
2023-05-07T15:36:34.311Z,20.69
2023-05-07T15:40:03.558Z,20.55
2023-05-07T15:43:31.267Z,20.34
2023-05-07T15:46:58.400Z,20.15
2023-05-07T15:50:25.924Z,19.91
2023-05-07T15:53:54.131Z,19.67
2023-05-07T15:57:20.631Z,19.42
2023-05-07T16:00:47.945Z,19.27
2023-05-07T16:04:15.157Z,19.10
2023-05-07T16:07:44.429Z,18.89
2023-05-07T16:11:12.642Z,18.66
2023-05-07T16:14:40.493Z,18.42
2023-05-07T16:18:07.837Z,18.19
2023-05-07T16:21:35.908Z,17.96
2023-05-07T16:25:05.164Z,17.78
2023-05-07T16:28:32.400Z,17.64
2023-05-07T16:32:00.893Z,17.56
2023-05-07T16:35:27.899Z,17.48
2023-05-07T16:38:54.831Z,17.41
2023-05-07T16:42:21.598Z,17.30
2023-05-07T16:45:48.671Z,17.15
2023-05-07T16:49:15.737Z,17.03
2023-05-07T16:52:45.870Z,16.91
2023-05-07T16:56:13.204Z,16.80
2023-05-07T16:59:40.630Z,16.68
2023-05-07T17:03:07.946Z,16.55
2023-05-07T17:06:35.978Z,16.45
2023-05-07T17:10:04.598Z,16.35
2023-05-07T17:13:31.636Z,16.24
2023-05-07T17:16:59.003Z,16.17
2023-05-07T17:20:27.763Z,16.08
2023-05-07T17:23:55.854Z,15.97
2023-05-07T17:27:23.385Z,15.85
2023-05-07T17:30:51.666Z,15.74
2023-05-07T17:34:18.838Z,15.62
2023-05-07T17:37:52.764Z,15.51
2023-05-07T17:41:23.029Z,15.39
2023-05-07T17:44:50.298Z,15.27
2023-05-07T17:48:17.669Z,15.16
2023-05-07T17:51:54.503Z,15.04
2023-05-07T17:55:25.092Z,14.90
2023-05-07T17:58:58.807Z,14.80
2023-05-07T18:02:27.245Z,14.69
2023-05-07T18:05:55.375Z,14.58
2023-05-07T18:09:24.409Z,14.49
2023-05-07T18:12:52.012Z,14.39
2023-05-07T18:16:20.262Z,14.28
2023-05-07T18:19:48.914Z,14.17
2023-05-07T18:23:20.053Z,14.04
2023-05-07T18:26:48.432Z,13.91
2023-05-07T18:30:19.336Z,13.77
2023-05-07T18:33:46.647Z,13.65
2023-05-07T18:37:14.198Z,13.52
2023-05-07T18:40:44.245Z,13.39
2023-05-07T18:44:11.134Z,13.24
2023-05-07T18:47:38.648Z,13.10
2023-05-07T18:51:08.709Z,12.94
2023-05-07T18:54:35.979Z,12.79
2023-05-07T18:58:04.268Z,12.66
2023-05-07T19:01:34.695Z,12.56
2023-05-07T19:05:14.714Z,12.42
2023-05-07T19:08:41.812Z,12.24
2023-05-07T19:12:10.761Z,12.10
2023-05-07T19:15:38.580Z,11.95
2023-05-07T19:19:07.027Z,11.81
2023-05-07T19:22:34.844Z,11.68
2023-05-07T19:26:03.240Z,11.55
2023-05-07T19:29:30.222Z,11.40
2023-05-07T19:32:57.729Z,11.29
2023-05-07T19:36:25.242Z,11.21
2023-05-07T19:39:55.104Z,11.14
2023-05-07T19:43:23.014Z,11.06
2023-05-07T19:46:54.875Z,10.97
2023-05-07T19:50:22.508Z,10.94
2023-05-07T19:53:49.851Z,10.91
2023-05-07T19:57:18.037Z,10.91
2023-05-07T20:00:45.389Z,10.91
2023-05-07T20:04:12.335Z,10.88
2023-05-07T20:07:40.000Z,10.85
2023-05-07T20:11:10.211Z,10.83
2023-05-07T20:14:39.464Z,10.80
2023-05-07T20:18:10.755Z,10.75
2023-05-07T20:21:44.866Z,10.67
2023-05-07T20:25:15.201Z,10.59
2023-05-07T20:28:41.870Z,10.53
2023-05-07T20:32:09.588Z,10.47
2023-05-07T20:35:37.493Z,10.42
2023-05-07T20:39:04.422Z,10.37
2023-05-07T20:42:31.823Z,10.28
2023-05-07T20:46:03.923Z,10.20
2023-05-07T20:49:30.760Z,10.09
2023-05-07T20:52:57.644Z,10.00
2023-05-07T20:56:24.715Z,9.89
2023-05-07T20:59:52.615Z,9.78
2023-05-07T21:03:19.441Z,9.68
2023-05-07T21:06:48.959Z,9.57
2023-05-07T21:10:15.851Z,9.46
2023-05-07T21:13:42.991Z,9.35
2023-05-07T21:17:10.581Z,9.24
2023-05-07T21:20:38.014Z,9.12
2023-05-07T21:24:05.711Z,9.01
2023-05-07T21:27:41.597Z,8.89
2023-05-07T21:31:09.466Z,8.85
2023-05-07T21:34:36.709Z,8.75
2023-05-07T21:38:04.026Z,8.64
2023-05-07T21:41:31.884Z,8.56
2023-05-07T21:44:59.692Z,8.49
2023-05-07T21:48:27.533Z,8.39
2023-05-07T21:51:55.080Z,8.30
2023-05-07T21:55:22.374Z,8.22
2023-05-07T21:58:49.766Z,8.14
2023-05-07T22:02:17.225Z,8.06
2023-05-07T22:05:45.044Z,7.98
2023-05-07T22:09:11.969Z,7.91
2023-05-07T22:12:39.862Z,7.85
2023-05-07T22:16:07.322Z,7.79
2023-05-07T22:19:33.973Z,7.73
2023-05-07T22:23:01.376Z,7.67
2023-05-07T22:26:29.048Z,7.60
2023-05-07T22:30:00.729Z,7.57
2023-05-07T22:33:27.756Z,7.54
2023-05-07T22:36:55.128Z,7.52
2023-05-07T22:40:22.840Z,7.51
2023-05-07T22:43:50.049Z,7.53
2023-05-07T22:47:17.337Z,7.56
2023-05-07T22:50:44.060Z,7.60
2023-05-07T22:54:11.586Z,7.62
2023-05-07T22:57:38.886Z,7.65
2023-05-07T23:01:12.662Z,7.69
2023-05-07T23:04:45.341Z,7.72
2023-05-07T23:08:12.539Z,7.72
2023-05-07T23:11:40.624Z,7.70
2023-05-07T23:15:09.963Z,7.66
2023-05-07T23:18:39.353Z,7.62
2023-05-07T23:22:06.594Z,7.56
2023-05-07T23:25:33.847Z,7.48
2023-05-07T23:29:00.730Z,7.42
2023-05-07T23:32:28.416Z,7.37
2023-05-07T23:36:03.522Z,7.28
2023-05-07T23:39:34.484Z,7.20
2023-05-07T23:43:02.825Z,7.14
2023-05-07T23:46:29.965Z,7.09
2023-05-07T23:49:58.206Z,7.02
2023-05-07T23:53:26.482Z,6.95
2023-05-07T23:56:53.943Z,6.90
